Terminal Aerodrome Forecast
Issued by NWS

Home | Current Version | Previous Version | Text Only | Print | Product List | Glossary On
Versions: 1 2 3 4 5 6 7 8 9 10 11 12 13 14 15 16 17 18 19 20 21
000
FTUS43 KJKL 222327 AAB
TAFSME
TAF AMD
KSME 222327Z 2223/2324 00000KT P6SM SCT030
     FM230700 00000KT 3SM BR FEW090
     FM230900 00000KT 1/4SM FG VV002
     FM231300 00000KT 3SM BR BKN020
     FM231400 VRB03KT P6SM BKN025
     FM231600 20004KT P6SM OVC040=

USA.gov is the U.S. government's official web portal to all federal, state and local government web resources and services.